Cassville, MO

1:10 PM CDT on August 30, 2014 (GMT -0500)
Farm Road 2100 | Change Station
CLOSE
Current Station
Personal Weather Station
Location: Wheaton, MO
Elevation: 1335 ft
Nearby Weather Stations

Elev 1335 ft 36.79 °N, 94.07 °W | Updated 5 seconds ago

Partly Cloudy
Partly Cloudy
84.7 °F
Feels Like 90 °F
N
2.0
Wind Variable Wind from West
Gusts 6.0 mph

Today
High -- | Low -- °F
--% Chance of Precip.
Yesterday
High -- | Low -- °F
Precip. -- in
6:45 AM 7:46 PM
Waxing Crescent, 23% visible
Pressure 29.97 in
Visibility 10.0 miles
Clouds Scattered Clouds 3100 ft
Mostly Cloudy 4400 ft
Mostly Cloudy 5000 ft
Heat Index 90 °F
Dew Point 72 °F
Humidity 65%
Rainfall 0.00 in
Snow Depth Not available.
UV 5 out of 12
Pollen 10.00 out of 12
Air Quality Not available.
Flu Activity Not available.
METAR KHFJ 301755Z AUTO 23006KT 10SM SCT031 BKN044 BKN050 28/21 A2997 RMK AO2

More Conditions Fewer Conditions

Pressure 29.97 in
Visibility 10.0 miles
Clouds Scattered Clouds 3100 ft
Mostly Cloudy 4400 ft
Mostly Cloudy 5000 ft
Heat Index 90 °F
Dew Point 72 °F
Humidity 65%
Rainfall 0.00 in
Snow Depth Not available.
UV 5 out of 12
Pollen 10.00 out of 12
Air Quality Not available.
Flu Activity Not available.
METAR KHFJ 301755Z AUTO 23006KT 10SM SCT031 BKN044 BKN050 28/21 A2997 RMK AO2

More Conditions Fewer Conditions

10-Day Weather Forecast

Almanac

Astronomy

Aug. 30, 2014 Rise Set
Actual Time 6:45 AM CDT 7:46 PM CDT
Civil Twilight 6:18 AM CDT 8:12 PM CDT
Nautical Twilight 5:46 AM CDT 8:44 PM CDT
Astronomical Twilight 5:14 AM CDT 9:16 PM CDT
Moon 11:24 AM CDT 10:30 PM CDT
Length of Visible Light 13h 54m
Length of Day
13h 01m
Tomorrow will be 2m 13s shorter.
Waxing Crescent, 23% of the Moon is Illuminated
Today
Waxing Crescent
Sep 2
First Quarter
Sep 8
Full
Sep 15
Last Quarter
Sep 24
New

Today's Extremes

State Highs State Lows

Community

WunderPhotos

Upload Photos

1,748,583 photos uploaded!

WunderBlogs® & News

Nearby

Snow Depth

Station Depth Elevation
No new snow has been reported.

Earthquake Activity

City Distance Mag. Time & Date
No recent earthquake activity has been reported nearby.
Minimum magnitude displayed is 2.5.

Coastal Water Temperatures

Place Temperature
No Stations Reporting

Nearby Weather Stations